McIntosh, Florida
Current Conditions -  °F | °C
As of 10:53 PM on Saturday 20 Dec 2014 (Local Time) from KGNV Reporting Station
Overcast Overcast  
Wind Chill: 57°   Ceiling: 900
Heat Index: 57°   Visibility: 10mi
Dew Point: 55°   Wind: 5mph
Humidity: 93%   Direction: 70°ENE
Pressure: 30.13"   Gusts: NA
Location:  29.45°N, 82.22°W
Report Text: KGNV 210353Z AUTO 07004KT 10SM BKN009 OVC080 14/13 A3013 RMK AO2 RAE04 SLP200 P0000 T01390128
Loading
Personal Weather Stations






























Interactive Weather Map New forecast layout! Learn more

10-Day Weather Forecast

Advertisements
Track Severe Weather on mobile